Time;durP1;ratioP1;P1;durP2;ratioP2;P2;SDS_P1;SDS_P2;PMS_P1;PMS_P2;Temp;Humidity;BMP_temperature;BMP_pressure;BME280_temperature;BME280_humidity;BME280_pressure;Samples;Min_cycle;Max_cycle;Signal;HPM_P1;HPM_P2
2022/06/08 00:02:04;;;;;;;14.43;4.28;;;512.80;2380.80;;;;;;5062049;28;20110;-81
2022/06/08 00:04:30;;;;;;;5.55;4.03;;;512.80;2380.80;;;;;;5044153;28;20095;-83
2022/06/08 00:06:55;;;;;;;5.30;4.07;;;512.80;2380.80;;;;;;5045215;28;20048;-84
2022/06/08 00:09:21;;;;;;;11.52;4.85;;;512.70;2380.80;;;;;;5045889;28;20021;-83
2022/06/08 00:11:47;;;;;;;6.55;4.03;;;512.70;2380.80;;;;;;5064370;28;20017;-79
2022/06/08 00:14:14;;;;;;;8.27;4.25;;;512.70;2380.80;;;;;;5044287;28;20033;-84
2022/06/08 00:16:41;;;;;;;5.30;3.92;;;512.80;2380.80;;;;;;5044317;28;20044;-83
2022/06/08 00:19:07;;;;;;;7.22;3.92;;;512.90;2380.80;;;;;;5046188;28;20540;-86
2022/06/08 00:21:33;;;;;;;5.57;4.25;;;537.60;2406.40;;;;;;5044064;28;20017;-82
2022/06/08 00:23:59;;;;;;;5.10;3.90;;;537.60;2406.40;;;;;;5044681;28;20549;-84
2022/06/08 00:26:25;;;;;;;6.40;4.05;;;537.70;2406.40;;;;;;5046097;28;20115;-85
2022/06/08 00:28:52;;;;;;;6.28;3.72;;;537.70;2406.40;;;;;;5046974;28;20485;-84
2022/06/08 00:31:18;;;;;;;5.75;3.90;;;537.90;2406.40;;;;;;5082096;28;20028;-84
2022/06/08 00:33:44;;;;;;;7.03;3.63;;;537.90;2406.40;;;;;;5083487;28;20096;-86
2022/06/08 00:36:10;;;;;;;5.82;4.30;;;538.00;2406.40;;;;;;5063742;28;20112;-84
2022/06/08 00:38:36;;;;;;;8.02;4.10;;;538.00;2406.40;;;;;;5064931;28;20034;-84
2022/06/08 00:41:07;;;;;;;6.32;3.80;;;538.00;2406.40;;;;;;5065493;28;20024;-85
2022/06/08 00:43:35;;;;;;;6.47;4.18;;;537.90;2406.40;;;;;;5064015;28;20016;-84
2022/06/08 00:46:02;;;;;;;4.97;3.92;;;537.80;2406.40;;;;;;5064206;28;20088;-85
2022/06/08 00:48:34;;;;;;;5.82;3.90;;;537.80;2406.40;;;;;;5063149;28;20115;-83
2022/06/08 00:51:01;;;;;;;5.55;4.05;;;537.90;2406.40;;;;;;5064459;28;20020;-85
2022/06/08 00:53:36;;;;;;;11.82;3.88;;;537.90;2406.40;;;;;;5065660;28;20727;-81
2022/06/08 00:56:05;;;;;;;6.63;4.30;;;537.80;2406.40;;;;;;5064922;28;20016;-84
2022/06/08 00:58:33;;;;;;;7.78;3.55;;;537.90;2406.40;;;;;;5081167;28;20039;-85
2022/06/08 01:01:00;;;;;;;7.07;3.55;;;537.90;2406.40;;;;;;5064513;28;20016;-85
2022/06/08 01:03:27;;;;;;;8.70;3.67;;;537.60;2406.40;;;;;;5065419;28;20028;-85
2022/06/08 01:06:06;;;;;;;9.23;4.18;;;537.90;2406.40;;;;;;5081571;28;20017;-85
2022/06/08 01:08:34;;;;;;;6.00;3.72;;;537.90;2406.40;;;;;;5081335;28;20028;-84
2022/06/08 01:11:04;;;;;;;7.88;4.15;;;538.00;2406.40;;;;;;5064670;28;20055;-84
2022/06/08 01:13:33;;;;;;;6.22;4.00;;;538.10;2406.40;;;;;;5065588;28;20031;-84
2022/06/08 01:16:09;;;;;;;5.28;3.65;;;538.00;2406.40;;;;;;5064150;28;20385;-84
2022/06/08 01:18:34;;;;;;;7.10;4.40;;;538.10;2406.40;;;;;;5063695;28;20021;-85
2022/06/08 01:21:35;;;;;;;5.95;3.83;;;538.10;2406.40;;;;;;5064120;28;20413;-81
2022/06/08 01:24:05;;;;;;;6.38;3.38;;;537.90;2406.40;;;;;;5064290;28;20017;-85
2022/06/08 01:26:39;;;;;;;5.50;3.53;;;537.80;2406.40;;;;;;5081093;28;20037;-84
2022/06/08 01:29:24;;;;;;;5.20;3.50;;;537.80;2406.40;;;;;;5081681;28;20047;-83
2022/06/08 01:32:14;;;;;;;6.40;3.67;;;537.80;2406.40;;;;;;5065096;28;20123;-83
2022/06/08 01:34:53;;;;;;;8.00;3.65;;;537.70;2406.40;;;;;;5064332;28;20031;-82
2022/06/08 01:37:56;;;;;;;6.38;3.78;;;537.80;2406.40;;;;;;5064020;28;20501;-84
2022/06/08 01:40:42;;;;;;;4.47;3.47;;;537.80;2406.40;;;;;;5065622;28;20026;-85
2022/06/08 01:43:20;;;;;;;7.63;3.47;;;537.60;2406.40;;;;;;5066463;28;20086;-85
2022/06/08 01:45:48;;;;;;;6.78;3.53;;;537.70;2406.40;;;;;;5067586;28;20048;-85
2022/06/08 01:48:41;;;;;;;5.38;3.65;;;537.60;2406.40;;;;;;5068682;28;20035;-84
2022/06/08 01:51:24;;;;;;;5.63;4.00;;;537.80;2406.40;;;;;;5074080;28;20089;-84
2022/06/08 01:54:02;;;;;;;4.82;3.42;;;537.90;2406.40;;;;;;5068406;28;20032;-82
2022/06/08 01:56:48;;;;;;;5.60;3.40;;;537.70;2406.40;;;;;;5068644;28;20020;-84
2022/06/08 01:59:20;;;;;;;4.78;3.10;;;537.60;2406.40;;;;;;5086636;28;20108;-81
2022/06/08 02:01:49;;;;;;;6.15;3.45;;;537.60;2406.40;;;;;;5067568;28;20021;-78
2022/06/08 02:04:21;;;;;;;4.88;3.63;;;537.60;2406.40;;;;;;5084473;28;20395;-85
2022/06/08 02:07:02;;;;;;;5.65;3.42;;;512.90;2380.80;;;;;;5066720;28;20027;-85
2022/06/08 02:09:46;;;;;;;7.50;4.00;;;512.90;2380.80;;;;;;5082212;28;20027;-80
2022/06/08 02:12:13;;;;;;;6.65;3.95;;;512.90;2380.80;;;;;;5068653;28;20023;-85
2022/06/08 02:14:47;;;;;;;6.22;4.07;;;512.80;2380.80;;;;;;5066694;28;20470;-85
2022/06/08 02:17:26;;;;;;;6.45;3.60;;;512.80;2380.80;;;;;;5068108;28;20031;-84
2022/06/08 02:19:58;;;;;;;4.88;4.00;;;512.80;2380.80;;;;;;5067992;28;20016;-83
2022/06/08 02:22:31;;;;;;;5.78;4.03;;;512.80;2380.80;;;;;;5066496;28;20074;-83
2022/06/08 02:25:12;;;;;;;5.13;3.40;;;512.90;2380.80;;;;;;5084267;28;20017;-82
2022/06/08 02:27:44;;;;;;;5.88;4.22;;;512.80;2380.80;;;;;;5083315;28;20032;-78
2022/06/08 02:30:20;;;;;;;4.57;3.38;;;512.90;2380.80;;;;;;5067448;28;20047;-82
2022/06/08 02:35:51;;;;;;;5.63;3.28;;;512.90;2380.80;;;;;;5085138;28;20031;-78
2022/06/08 02:38:22;;;;;;;4.82;3.67;;;512.90;2380.80;;;;;;5081590;28;20100;-83
2022/06/08 02:40:52;;;;;;;6.68;3.60;;;512.80;2380.80;;;;;;5065668;28;20103;-79
2022/06/08 02:43:36;;;;;;;11.95;4.15;;;512.70;2380.80;;;;;;5067422;28;20072;-78
2022/06/08 02:46:34;;;;;;;6.05;3.67;;;512.80;2380.80;;;;;;5065263;28;20040;-78
2022/06/08 02:49:05;;;;;;;6.55;3.38;;;512.70;2380.80;;;;;;5067048;28;20024;-78
2022/06/08 02:51:31;;;;;;;7.38;4.00;;;512.70;2380.80;;;;;;5067253;28;20160;-79
2022/06/08 02:54:12;;;;;;;8.80;4.28;;;512.80;2380.80;;;;;;5081903;28;20025;-79
2022/06/08 02:57:03;;;;;;;5.05;3.50;;;512.90;2380.80;;;;;;5064579;28;20089;-78
2022/06/08 02:59:46;;;;;;;8.23;3.97;;;512.90;2380.80;;;;;;5066384;28;20115;-79
2022/06/08 03:02:33;;;;;;;11.43;3.85;;;537.60;2406.40;;;;;;5079267;28;20088;-79
2022/06/08 03:05:31;;;;;;;8.18;3.65;;;537.60;2406.40;;;;;;5062657;28;20031;-78
2022/06/08 03:08:07;;;;;;;4.35;3.22;;;512.90;2380.80;;;;;;5003600;28;20089;-79
2022/06/08 03:10:37;;;;;;;5.68;3.55;;;537.60;2406.40;;;;;;5021048;28;20087;-78
2022/06/08 03:13:09;;;;;;;7.00;2.80;;;537.80;2406.40;;;;;;5004757;28;20030;-76
2022/06/08 03:15:36;;;;;;;5.75;3.45;;;538.10;2406.40;;;;;;5020575;28;20022;-78
2022/06/08 03:18:02;;;;;;;6.53;3.22;;;538.20;2406.40;;;;;;5022082;28;20029;-78
2022/06/08 03:20:29;;;;;;;7.13;3.70;;;538.20;2406.40;;;;;;5021816;28;20021;-78
2022/06/08 03:22:55;;;;;;;8.50;3.60;;;538.30;2406.40;;;;;;5020725;28;20033;-78
2022/06/08 03:25:22;;;;;;;9.55;3.67;;;538.20;2406.40;;;;;;5005641;28;20479;-79
2022/06/08 03:27:49;;;;;;;5.25;3.47;;;538.30;2406.40;;;;;;5005228;28;20046;-79
2022/06/08 03:30:16;;;;;;;7.15;3.60;;;538.30;2406.40;;;;;;5020084;28;20053;-78
2022/06/08 03:32:42;;;;;;;9.30;3.38;;;538.40;2406.40;;;;;;5022415;28;20634;-79
2022/06/08 03:35:09;;;;;;;8.00;3.50;;;538.40;2406.40;;;;;;5021436;28;20030;-79
2022/06/08 03:37:35;;;;;;;5.95;3.58;;;538.30;2406.40;;;;;;5003559;28;20045;-78
2022/06/08 03:40:02;;;;;;;9.15;3.72;;;538.30;2406.40;;;;;;5022005;28;20017;-77
2022/06/08 03:42:28;;;;;;;6.28;3.90;;;538.30;2406.40;;;;;;5023739;28;20030;-78
2022/06/08 03:44:53;;;;;;;7.20;3.58;;;538.20;2406.40;;;;;;5063275;28;20047;-78
2022/06/08 03:47:29;;;;;;;5.35;3.95;;;538.20;2406.40;;;;;;5065099;28;20115;-78
2022/06/08 03:49:57;;;;;;;;;;;538.20;2406.40;;;;;;5067582;28;20078;-78
2022/06/08 03:52:28;;;;;;;4.65;3.58;;;538.20;2406.40;;;;;;5082394;28;19904;-79
2022/06/08 03:54:59;;;;;;;8.10;3.50;;;538.20;2406.40;;;;;;5081904;28;20027;-77
2022/06/08 03:57:28;;;;;;;4.25;3.28;;;538.30;2406.40;;;;;;5081144;28;20040;-78
2022/06/08 03:59:55;;;;;;;8.73;4.13;;;538.30;2406.40;;;;;;5066075;28;20059;-78
2022/06/08 04:02:23;;;;;;;7.15;2.72;;;538.30;2406.40;;;;;;5081138;28;20032;-78
2022/06/08 04:04:49;;;;;;;4.35;3.10;;;538.30;2406.40;;;;;;5064989;28;20051;-78
2022/06/08 04:20:57;;;;;;;8.63;3.67;;;538.30;2406.40;;;;;;5125228;27;20377;-79
2022/06/08 04:23:26;;;;;;;5.50;3.30;;;563.60;2432.00;;;;;;5092173;28;20103;-83
2022/06/08 04:25:53;;;;;;;7.55;3.97;;;563.40;2432.00;;;;;;5088634;28;20073;-81
2022/06/08 04:28:19;;;;;;;5.78;3.85;;;563.30;2432.00;;;;;;5089986;28;20020;-79
2022/06/08 04:30:46;;;;;;;8.65;3.28;;;563.20;2432.00;;;;;;5088486;28;20020;-80
2022/06/08 04:33:12;;;;;;;8.40;3.17;;;563.20;2432.00;;;;;;5089353;28;20020;-77
2022/06/08 04:35:39;;;;;;;7.05;3.28;;;563.20;2432.00;;;;;;5089142;28;20035;-76
2022/06/08 04:38:05;;;;;;;7.47;3.40;;;563.20;2432.00;;;;;;5088934;28;20104;-77
2022/06/08 04:40:31;;;;;;;6.97;3.25;;;563.20;2432.00;;;;;;5087458;28;20392;-77
2022/06/08 04:42:57;;;;;;;7.05;3.30;;;563.20;2432.00;;;;;;5088755;28;20023;-76
2022/06/08 04:45:24;;;;;;;4.22;3.03;;;563.30;2432.00;;;;;;5088418;28;20104;-76
2022/06/08 04:47:50;;;;;;;8.68;3.70;;;563.30;2432.00;;;;;;5088526;28;20500;-76
2022/06/08 04:50:15;;;;;;;8.75;3.13;;;563.30;2432.00;;;;;;5088017;28;20075;-77
2022/06/08 04:52:41;;;;;;;8.40;2.92;;;563.40;2432.00;;;;;;5088192;28;20013;-77
2022/06/08 04:55:10;;;;;;;5.65;3.33;;;563.40;2432.00;;;;;;5088300;28;20055;-75
2022/06/08 04:57:37;;;;;;;7.22;3.17;;;563.40;2432.00;;;;;;5088490;28;20108;-76
2022/06/08 05:00:09;;;;;;;9.18;3.08;;;563.50;2432.00;;;;;;5084790;28;20469;-78
2022/06/08 05:02:44;;;;;;;6.68;3.72;;;563.60;2432.00;;;;;;5086158;28;20024;-76
2022/06/08 05:05:30;;;;;;;5.47;3.05;;;563.60;2432.00;;;;;;5086836;28;20366;-77
2022/06/08 05:07:57;;;;;;;4.30;2.95;;;563.60;2432.00;;;;;;5086511;28;20024;-77
2022/06/08 05:10:24;;;;;;;7.20;4.28;;;563.70;2432.00;;;;;;5084061;28;20039;-77
2022/06/08 05:12:50;;;;;;;8.65;3.05;;;563.70;2432.00;;;;;;5088024;28;20016;-77
2022/06/08 05:15:28;;;;;;;11.38;3.63;;;563.70;2432.00;;;;;;5088234;28;20020;-76
2022/06/08 05:17:54;;;;;;;7.72;3.35;;;563.70;2432.00;;;;;;5085445;28;20028;-76
2022/06/08 05:20:21;;;;;;;4.10;2.80;;;563.70;2432.00;;;;;;5082736;28;20075;-76
2022/06/08 05:22:48;;;;;;;4.18;3.00;;;563.70;2432.00;;;;;;5074306;28;20016;-77
2022/06/08 05:25:18;;;;;;;9.68;3.33;;;563.70;2432.00;;;;;;5073437;28;20038;-77
2022/06/08 05:27:44;;;;;;;6.93;2.95;;;563.80;2432.00;;;;;;5071500;28;20025;-75
2022/06/08 05:30:12;;;;;;;5.40;3.30;;;563.70;2432.00;;;;;;5074523;28;20381;-76
2022/06/08 05:32:39;;;;;;;8.63;2.90;;;563.70;2432.00;;;;;;5072981;28;20044;-76
2022/06/08 05:35:06;;;;;;;6.28;3.58;;;563.80;2432.00;;;;;;5070654;28;20508;-75
2022/06/08 05:49:48;;;;;;;6.88;2.97;;;563.90;2432.00;;;;;;5110784;27;20386;-77
2022/06/08 05:52:14;;;;;;;6.82;3.08;;;589.50;2048.00;;;;;;5110006;28;20055;-70
2022/06/08 05:54:40;;;;;;;4.30;2.83;;;589.50;2022.40;;;;;;5097736;28;20028;-76
2022/06/08 05:57:06;;;;;;;14.48;3.08;;;589.50;2048.00;;;;;;5101941;28;20408;-75
2022/06/08 05:59:31;;;;;;;4.35;2.20;;;589.50;1996.80;;;;;;5093360;28;20028;-76
2022/06/08 06:01:57;;;;;;;6.38;2.80;;;589.50;1971.20;;;;;;5087494;28;20477;-77
2022/06/08 06:04:23;;;;;;;6.07;2.60;;;589.60;1996.80;;;;;;5087712;28;20380;-75
2022/06/08 06:06:49;;;;;;;8.52;2.67;;;589.60;1945.60;;;;;;5105442;28;20016;-75
2022/06/08 06:09:17;;;;;;;6.53;2.63;;;589.60;1971.20;;;;;;5107931;28;20028;-76
2022/06/08 06:11:44;;;;;;;9.13;2.60;;;589.70;1945.60;;;;;;5107947;28;20388;-75
2022/06/08 06:14:10;;;;;;;4.70;2.53;;;614.40;1920.00;;;;;;5109560;28;20095;-76
2022/06/08 06:16:37;;;;;;;5.35;2.42;;;614.50;1920.00;;;;;;5108985;28;20015;-76
2022/06/08 06:19:03;;;;;;;11.52;3.28;;;614.50;1843.20;;;;;;5108870;28;20058;-77
2022/06/08 06:21:29;;;;;;;4.43;2.58;;;614.60;1843.20;;;;;;5105755;28;20024;-75
2022/06/08 06:23:57;;;;;;;8.45;2.63;;;614.70;1792.00;;;;;;5098275;28;20035;-74
2022/06/08 06:26:23;;;;;;;6.90;2.97;;;614.80;1817.60;;;;;;5109045;28;20354;-75
2022/06/08 06:28:49;;;;;;;9.52;2.67;;;614.80;1817.60;;;;;;5108714;28;20031;-76
2022/06/08 06:31:26;;;;;;;10.73;3.35;;;614.80;1792.00;;;;;;5107896;28;20027;-76
2022/06/08 06:33:51;;;;;;;8.40;2.83;;;614.80;1766.40;;;;;;5108642;28;20503;-75
2022/06/08 06:36:17;;;;;;;10.57;2.95;;;614.80;1766.40;;;;;;5095836;28;20103;-75
2022/06/08 06:38:43;;;;;;;8.75;2.53;;;614.80;1817.60;;;;;;5107762;28;20056;-76
2022/06/08 06:41:16;;;;;;;5.65;2.60;;;614.80;1817.60;;;;;;5108638;28;20028;-75
2022/06/08 06:43:43;;;;;;;9.60;2.20;;;614.80;1817.60;;;;;;5094324;28;20016;-75
2022/06/08 06:46:13;;;;;;;3.53;2.47;;;614.80;1792.00;;;;;;5108505;28;20106;-75
2022/06/08 06:48:39;;;;;;;4.10;2.60;;;614.90;1766.40;;;;;;5105375;28;20048;-74
2022/06/08 06:51:06;;;;;;;7.50;3.47;;;614.90;1792.00;;;;;;5094548;28;20028;-75
2022/06/08 06:53:32;;;;;;;7.25;2.55;;;614.90;1817.60;;;;;;5094946;28;20042;-75
2022/06/08 06:55:58;;;;;;;13.40;2.88;;;614.90;1792.00;;;;;;5094826;28;20469;-76
2022/06/08 06:58:23;;;;;;;7.95;2.70;;;615.00;1766.40;;;;;;5094660;28;20082;-76
2022/06/08 07:00:49;;;;;;;5.32;2.75;;;615.00;1715.20;;;;;;5094721;28;20013;-76
2022/06/08 07:03:15;;;;;;;6.43;3.92;;;615.00;1715.20;;;;;;5083692;28;20024;-76
2022/06/08 07:05:41;;;;;;;6.50;2.20;;;615.10;1715.20;;;;;;5089213;28;20016;-75
2022/06/08 07:08:07;;;;;;;4.72;2.60;;;615.00;1689.60;;;;;;5093243;28;20381;-75
2022/06/08 07:10:34;;;;;;;5.88;2.45;;;615.00;1715.20;;;;;;5080785;28;20074;-75
2022/06/08 07:13:00;;;;;;;8.52;3.17;;;615.10;1715.20;;;;;;5064884;28;20480;-75
2022/06/08 07:15:27;;;;;;;7.13;2.85;;;615.10;1715.20;;;;;;5094562;28;20423;-73
2022/06/08 07:17:53;;;;;;;6.28;2.65;;;615.10;1715.20;;;;;;5093870;28;20032;-74
2022/06/08 07:20:20;;;;;;;6.53;2.72;;;615.30;1740.80;;;;;;5091685;28;20024;-75
2022/06/08 07:22:47;;;;;;;3.60;2.28;;;615.20;1740.80;;;;;;5073762;28;20070;-74
2022/06/08 07:25:14;;;;;;;9.25;2.78;;;640.00;1689.60;;;;;;5073697;28;20074;-76
2022/06/08 07:27:41;;;;;;;5.70;2.50;;;640.20;1715.20;;;;;;5072548;28;20025;-75
2022/06/08 07:30:07;;;;;;;4.95;2.50;;;640.40;1664.00;;;;;;5071464;28;20097;-76
2022/06/08 07:32:34;;;;;;;6.90;2.95;;;640.50;1664.00;;;;;;5082479;28;20031;-76
2022/06/08 07:35:02;;;;;;;11.13;4.40;;;640.50;1664.00;;;;;;5092625;28;20050;-77
2022/06/08 07:37:28;;;;;;;11.18;3.25;;;640.50;1715.20;;;;;;5094283;28;20067;-76
2022/06/08 07:39:54;;;;;;;12.10;4.70;;;640.50;1715.20;;;;;;5092340;28;20074;-76
2022/06/08 07:42:21;;;;;;;8.00;3.83;;;640.40;1664.00;;;;;;5064782;28;20020;-77
2022/06/08 07:44:48;;;;;;;5.72;2.47;;;640.20;1740.80;;;;;;5092572;28;20020;-75
2022/06/08 07:47:14;;;;;;;4.50;2.75;;;640.10;1740.80;;;;;;5093692;28;20040;-77
2022/06/08 07:49:41;;;;;;;6.40;2.75;;;640.10;1766.40;;;;;;5092629;28;20044;-78
2022/06/08 07:52:19;;;;;;;9.90;2.78;;;640.10;1740.80;;;;;;5092404;28;20354;-77
2022/06/08 07:54:47;;;;;;;9.05;2.90;;;640.10;1766.40;;;;;;5079696;28;20420;-77
2022/06/08 07:57:20;;;;;;;5.32;3.28;;;640.40;1740.80;;;;;;5071371;28;20039;-77
2022/06/08 07:59:46;;;;;;;8.48;2.83;;;640.40;1766.40;;;;;;5071746;28;20054;-77
2022/06/08 08:02:14;;;;;;;6.35;2.85;;;640.40;1766.40;;;;;;5070804;28;20052;-77
2022/06/08 08:04:41;;;;;;;7.68;2.53;;;640.50;1792.00;;;;;;5071749;28;20126;-77
2022/06/08 08:07:07;;;;;;;10.40;3.83;;;640.50;1766.40;;;;;;5079618;28;20500;-77
2022/06/08 08:09:34;;;;;;;7.90;3.15;;;640.40;1843.20;;;;;;5074417;28;20059;-77
2022/06/08 08:12:00;;;;;;;6.90;3.00;;;640.50;1792.00;;;;;;5071602;28;20035;-78
2022/06/08 08:14:26;;;;;;;7.88;2.65;;;640.50;1792.00;;;;;;5071563;28;20021;-77
2022/06/08 08:16:53;;;;;;;4.53;2.47;;;640.50;1817.60;;;;;;5087564;28;20025;-76
2022/06/08 08:19:23;;;;;;;8.15;3.08;;;640.60;1817.60;;;;;;5072591;28;20091;-77
2022/06/08 08:21:50;;;;;;;7.75;3.63;;;640.50;1894.40;;;;;;5070228;28;20062;-76
2022/06/08 08:24:16;;;;;;;7.43;3.38;;;640.20;2048.00;;;;;;5073661;28;20035;-76
2022/06/08 08:26:47;;;;;;;5.30;3.50;;;640.10;2150.40;;;;;;5074611;28;20508;-77
2022/06/08 08:29:13;;;;;;;8.43;3.58;;;640.00;2176.00;;;;;;5091982;28;20044;-77
2022/06/08 08:31:40;;;;;;;10.95;3.33;;;615.20;2124.80;;;;;;5092814;28;20024;-76
2022/06/08 08:34:06;;;;;;;12.70;3.42;;;615.10;2124.80;;;;;;5093321;28;20023;-76
2022/06/08 08:36:32;;;;;;;4.55;3.00;;;615.00;2227.20;;;;;;5072476;28;20021;-76
2022/06/08 08:38:58;;;;;;;8.27;3.88;;;614.80;2227.20;;;;;;5067618;28;20398;-76
2022/06/08 08:44:38;;;;;;;7.45;2.92;;;614.70;2278.40;;;;;;5069930;28;20113;-77
2022/06/08 08:47:28;;;;;;;7.20;2.95;;;614.60;2329.60;;;;;;5071911;28;20485;-78
2022/06/08 08:49:55;;;;;;;11.13;3.40;;;614.50;2380.80;;;;;;5080001;28;20131;-77
2022/06/08 08:52:41;;;;;;;17.48;4.78;;;614.40;2380.80;;;;;;5086587;28;20020;-76
2022/06/08 08:55:17;;;;;;;8.80;2.90;;;614.40;2406.40;;;;;;5083877;28;20115;-77
2022/06/08 08:57:49;;;;;;;4.50;3.40;;;589.70;2432.00;;;;;;5063520;28;20028;-76
2022/06/08 09:00:20;;;;;;;8.35;4.07;;;589.50;2432.00;;;;;;5078277;28;20054;-82
2022/06/08 09:05:32;;;;;;;7.87;4.07;;;589.20;2432.00;;;;;;5087557;28;20035;-78
2022/06/08 09:07:58;;;;;;;8.65;4.85;;;589.00;2432.00;;;;;;5091733;28;20036;-79
2022/06/08 09:10:26;;;;;;;7.43;4.55;;;588.80;2432.00;;;;;;5091663;28;20020;-77
2022/06/08 09:12:53;;;;;;;5.90;4.63;;;588.80;2432.00;;;;;;5092366;28;20024;-80
2022/06/08 09:15:44;;;;;;;8.68;5.03;;;564.10;2432.00;;;;;;5090999;28;20035;-78
2022/06/08 09:18:33;;;;;;;9.30;5.13;;;563.90;2432.00;;;;;;5078955;28;20032;-78
2022/06/08 09:21:02;;;;;;;8.23;5.45;;;564.10;2432.00;;;;;;5092750;28;20028;-80
2022/06/08 09:23:41;;;;;;;10.43;6.75;;;564.10;2432.00;;;;;;5092119;28;20024;-78
2022/06/08 09:26:12;;;;;;;9.15;5.85;;;564.10;2432.00;;;;;;5082046;28;20040;-78
2022/06/08 09:41:13;;;;;;;8.75;5.45;;;588.90;2432.00;;;;;;5110073;27;20389;-80
2022/06/08 09:44:15;;;;;;;7.67;4.40;;;614.40;2432.00;;;;;;5106212;28;20122;-78
2022/06/08 09:52:46;;;;;;;7.55;4.57;;;589.40;2432.00;;;;;;5125904;28;20391;-78
2022/06/08 09:55:12;;;;;;;;;;;589.30;2432.00;;;;;;5115356;28;20032;-77
2022/06/08 09:57:55;;;;;;;7.90;4.43;;;589.30;2432.00;;;;;;5117172;27;19904;-78
2022/06/08 10:00:46;;;;;;;6.47;5.03;;;589.30;2432.00;;;;;;5102183;27;20023;-78
2022/06/08 10:03:41;;;;;;;6.75;4.30;;;589.70;2432.00;;;;;;5098832;28;20023;-77
2022/06/08 10:06:36;;;;;;;7.70;4.05;;;614.40;2432.00;;;;;;5128945;27;20103;-79
2022/06/08 10:09:07;;;;;;;6.07;4.55;;;614.40;2432.00;;;;;;5119177;28;20039;-77
2022/06/08 10:11:42;;;;;;;6.22;4.95;;;589.70;2432.00;;;;;;5128568;28;20391;-76
2022/06/08 10:14:30;;;;;;;6.28;4.75;;;589.70;2432.00;;;;;;5109314;27;20019;-77
2022/06/08 10:17:25;;;;;;;9.55;4.75;;;589.70;2432.00;;;;;;5090306;28;20043;-75
2022/06/08 10:20:19;;;;;;;8.05;4.65;;;589.60;2432.00;;;;;;5079952;28;20036;-76
2022/06/08 10:22:49;;;;;;;9.13;5.38;;;589.60;2432.00;;;;;;5084638;28;20016;-76
2022/06/08 10:25:21;;;;;;;7.05;4.40;;;614.40;2432.00;;;;;;5083355;28;20037;-76
2022/06/08 10:27:52;;;;;;;8.35;4.63;;;614.50;2432.00;;;;;;5059325;28;20032;-77
2022/06/08 10:30:25;;;;;;;5.32;3.60;;;614.50;2432.00;;;;;;5084199;28;20060;-76
2022/06/08 10:33:02;;;;;;;8.25;4.47;;;614.60;2432.00;;;;;;5065042;28;20063;-76
2022/06/08 10:35:28;;;;;;;5.47;4.40;;;614.60;2432.00;;;;;;5068421;28;20040;-78
2022/06/08 10:37:55;;;;;;;5.22;4.30;;;614.70;2432.00;;;;;;5083920;28;20151;-77
2022/06/08 10:40:26;;;;;;;9.98;5.25;;;614.80;2432.00;;;;;;5078526;28;20143;-77
2022/06/08 10:42:53;;;;;;;10.48;5.80;;;615.20;2432.00;;;;;;5067755;28;20067;-75
2022/06/08 10:45:26;;;;;;;7.90;5.03;;;615.00;2432.00;;;;;;5053854;28;20406;-75
2022/06/08 10:48:25;;;;;;;5.47;4.10;;;615.10;2432.00;;;;;;5072444;28;20128;-77
2022/06/08 10:51:09;;;;;;;5.85;3.85;;;615.10;2432.00;;;;;;5063815;28;20048;-77
2022/06/08 10:56:34;;;;;;;5.13;4.45;;;615.30;2432.00;;;;;;5068633;28;20039;-79
2022/06/08 10:59:03;;;;;;;7.40;5.30;;;615.30;2432.00;;;;;;5113559;28;20028;-79
2022/06/08 11:01:53;;;;;;;6.38;5.00;;;640.00;2432.00;;;;;;5113680;28;20544;-79
2022/06/08 11:04:32;;;;;;;10.85;4.82;;;640.60;2432.00;;;;;;5089970;28;20024;-79
2022/06/08 11:07:00;;;;;;;9.13;5.10;;;665.90;2432.00;;;;;;5113377;28;20027;-80
2022/06/08 11:09:34;;;;;;;8.52;5.03;;;665.60;2432.00;;;;;;5113608;28;20323;-79
2022/06/08 11:12:05;;;;;;;13.18;4.72;;;665.60;2432.00;;;;;;5113947;28;20051;-79
2022/06/08 11:14:51;;;;;;;16.52;5.50;;;640.80;2432.00;;;;;;5115336;28;20023;-80
2022/06/08 11:17:28;;;;;;;11.02;4.50;;;666.00;2432.00;;;;;;5113915;28;20185;-80
2022/06/08 11:20:11;;;;;;;7.05;4.35;;;666.20;2432.00;;;;;;5104495;28;20468;-81
2022/06/08 11:22:43;;;;;;;9.10;4.50;;;691.20;2432.00;;;;;;5091097;28;20020;-80
2022/06/08 11:25:22;;;;;;;6.55;4.93;;;691.60;2432.00;;;;;;5093298;28;20146;-79
2022/06/08 11:28:25;;;;;;;5.75;4.13;;;691.70;2432.00;;;;;;5112652;28;20019;-80
2022/06/08 11:30:53;;;;;;;5.60;3.97;;;;;;;;;;5113333;28;20031;-79
2022/06/08 11:33:20;;;;;;;8.25;4.47;;;691.70;2304.00;;;;;;5092486;28;20036;-79
2022/06/08 11:35:58;;;;;;;9.68;5.10;;;716.80;2252.80;;;;;;5092408;28;20361;-79
2022/06/08 11:38:57;;;;;;;8.32;4.80;;;716.90;2022.40;;;;;;5092600;28;20115;-80
2022/06/08 11:41:36;;;;;;;10.35;4.63;;;717.10;2278.40;;;;;;5092690;28;20039;-79
2022/06/08 11:44:11;;;;;;;7.65;4.60;;;717.40;2022.40;;;;;;5092225;28;20061;-80
2022/06/08 11:46:45;;;;;;;5.85;4.07;;;717.50;1996.80;;;;;;5091052;28;20020;-79
2022/06/08 11:49:30;;;;;;;8.30;3.70;;;717.50;1945.60;;;;;;5089901;28;20040;-79
2022/06/08 11:51:57;;;;;;;5.47;3.13;;;717.40;1766.40;;;;;;5089591;28;20044;-80
2022/06/08 11:54:29;;;;;;;4.82;3.38;;;717.50;1715.20;;;;;;5092197;28;20123;-80
2022/06/08 11:57:11;;;;;;;5.95;3.53;;;717.50;1612.80;;;;;;5090386;28;20483;-81
2022/06/08 11:59:40;;;;;;;6.90;3.70;;;717.70;1638.40;;;;;;5091935;28;20106;-80
2022/06/08 12:02:38;;;;;;;5.40;3.53;;;717.70;1766.40;;;;;;5093451;28;20022;-80
2022/06/08 12:05:07;;;;;;;4.68;3.47;;;742.40;1715.20;;;;;;5092197;28;20023;-80
2022/06/08 12:08:01;;;;;;;5.78;3.95;;;742.40;1664.00;;;;;;5089122;28;20107;-79
2022/06/08 12:10:32;;;;;;;5.93;3.80;;;742.40;1689.60;;;;;;5091515;28;20044;-78
2022/06/08 12:12:58;;;;;;;4.95;3.90;;;742.60;1689.60;;;;;;5096589;28;20015;-78
2022/06/08 12:15:48;;;;;;;8.60;4.20;;;742.40;1638.40;;;;;;5103115;28;20077;-78
2022/06/08 12:18:39;;;;;;;5.15;4.30;;;742.80;1612.80;;;;;;5083176;28;20598;-79
2022/06/08 12:21:21;;;;;;;6.57;4.30;;;742.50;1715.20;;;;;;5111348;28;20236;-79
2022/06/08 12:24:04;;;;;;;6.75;4.68;;;742.60;1689.60;;;;;;5103068;28;20036;-79
2022/06/08 12:26:42;;;;;;;8.35;5.03;;;742.60;1664.00;;;;;;5097806;28;20023;-79
2022/06/08 12:29:27;;;;;;;9.82;4.68;;;742.80;1689.60;;;;;;5100896;28;20485;-82
2022/06/08 12:32:16;;;;;;;10.23;4.68;;;742.80;1664.00;;;;;;5084207;28;20407;-79
2022/06/08 12:34:46;;;;;;;13.13;4.97;;;742.90;1664.00;;;;;;5112538;28;20396;-80
2022/06/08 12:37:30;;;;;;;9.05;4.32;;;742.90;1638.40;;;;;;5106917;28;20048;-79
2022/06/08 12:40:16;;;;;;;9.23;5.10;;;743.00;1638.40;;;;;;5098192;28;20226;-79
2022/06/08 12:42:57;;;;;;;6.80;4.53;;;743.00;1664.00;;;;;;5091556;28;20035;-76
2022/06/08 12:45:33;;;;;;;7.07;5.63;;;742.80;1740.80;;;;;;5089079;28;20024;-79
2022/06/08 12:48:16;;;;;;;7.75;5.53;;;742.90;1715.20;;;;;;5090203;28;20131;-79
2022/06/08 12:50:42;;;;;;;6.07;4.75;;;742.90;1766.40;;;;;;5092540;28;20024;-79
2022/06/08 12:53:08;;;;;;;8.63;5.90;;;742.80;1715.20;;;;;;5091367;28;20031;-79
2022/06/08 12:55:36;;;;;;;7.72;5.10;;;742.50;1843.20;;;;;;5089451;28;20039;-80
2022/06/08 12:58:03;;;;;;;8.57;5.90;;;742.40;1817.60;;;;;;5116638;28;20016;-80
2022/06/08 13:00:30;;;;;;;8.23;5.68;;;717.70;1868.80;;;;;;5119620;28;20056;-79
2022/06/08 13:02:59;;;;;;;13.50;6.95;;;742.40;1817.60;;;;;;5096850;28;20077;-79
2022/06/08 13:05:35;;;;;;;7.00;5.75;;;742.60;1843.20;;;;;;5092605;28;20046;-79
2022/06/08 13:08:02;;;;;;;6.78;5.78;;;742.50;1792.00;;;;;;5094715;28;20107;-79
2022/06/08 13:10:30;;;;;;;8.73;5.90;;;717.70;1843.20;;;;;;5106059;28;20096;-79
2022/06/08 13:13:03;;;;;;;8.20;6.72;;;717.30;1894.40;;;;;;5111442;28;20019;-79
2022/06/08 13:15:36;;;;;;;7.35;6.65;;;716.90;1971.20;;;;;;5100646;28;20028;-79
2022/06/08 13:18:04;;;;;;;9.68;6.28;;;716.80;1996.80;;;;;;5109158;28;20031;-79
2022/06/08 13:20:35;;;;;;;9.30;5.65;;;716.80;1971.20;;;;;;5111582;28;20393;-79
2022/06/08 13:23:02;;;;;;;10.63;6.32;;;716.80;1945.60;;;;;;5108328;28;20047;-79
2022/06/08 13:25:30;;;;;;;6.82;5.85;;;716.90;2048.00;;;;;;5093619;28;20024;-79
2022/06/08 13:27:58;;;;;;;9.05;6.25;;;716.80;2048.00;;;;;;5084995;28;20366;-80
2022/06/08 13:30:29;;;;;;;8.20;7.22;;;717.00;2099.20;;;;;;5098340;28;20127;-80
2022/06/08 13:32:56;;;;;;;10.73;6.65;;;717.00;2124.80;;;;;;5089881;28;20028;-79
2022/06/08 13:35:23;;;;;;;9.32;6.90;;;717.00;2124.80;;;;;;5098031;28;20488;-80
2022/06/08 13:37:51;;;;;;;12.15;7.75;;;717.20;2073.60;;;;;;5088684;28;20031;-79
2022/06/08 13:40:27;;;;;;;9.05;7.40;;;717.40;2099.20;;;;;;5089713;28;20134;-79